RYR3982 GMAD-LFRS
Flight info
| Callsign | RYR3982 |
|---|---|
| Flight time | 2h 35m |
| Altitude | 34000 |
| Route | MOGBA UH300 ESS UR724 IBALU/N0453F360 UR724 OSLAD DCT PESAS DCT PARKA DCT TLD DCT SIE DCT EDIGO DCT DGO L176 LUSEM DCT LULUT DCT CNA DCT MANAK |
| Aircraft | B738/M-SDE2E3FGHIRWXY/LB1 |
Departure
| Time | 2026-05-04 16:34 |
|---|---|
| Airport | Al Massira Airport (GMAD) |
Arrival
| Time | 2026-05-04 19:09 |
|---|---|
| Airport | Nantes Atlantique Airport (LFRS) |
| Time | Latitude | Longitude | Altitude | Speed | Heading |
|---|---|---|---|---|---|
| 2026-05-04 16:28 | 30.32817 | -9.41405 | 221 ft | 0 kts | 91° |
| 2026-05-04 16:28 | 30.32814 | -9.41266 | 224 ft | 14 kts | 92° |
| 2026-05-04 16:29 | 30.32800 | -9.40709 | 231 ft | 17 kts | 103° |
| 2026-05-04 16:30 | 30.32446 | -9.40643 | 235 ft | 18 kts | 120° |
| 2026-05-04 16:31 | 30.32432 | -9.40336 | 241 ft | 21 kts | 92° |
| 2026-05-04 16:31 | 30.32417 | -9.39724 | 252 ft | 26 kts | 91° |
| 2026-05-04 16:32 | 30.32234 | -9.39513 | 257 ft | 9 kts | 192° |
| 2026-05-04 16:33 | 30.32225 | -9.39774 | 252 ft | 51 kts | 271° |
| 2026-05-04 16:33 | 30.32274 | -9.41614 | 219 ft | 169 kts | 270° |
| 2026-05-04 16:34 | 30.32378 | -9.44505 | 1325 ft | 187 kts | 273° |
| 2026-05-04 16:34 | 30.32446 | -9.46037 | 1851 ft | 199 kts | 275° |
| 2026-05-04 16:35 | 30.31961 | -9.51291 | 3114 ft | 253 kts | 236° |
| 2026-05-04 16:35 | 30.27941 | -9.55762 | 4952 ft | 278 kts | 230° |
| 2026-05-04 16:36 | 30.26857 | -9.57567 | 5621 ft | 277 kts | 250° |
| 2026-05-04 16:36 | 30.25927 | -9.61833 | 7138 ft | 275 kts | 262° |
| 2026-05-04 16:37 | 30.25104 | -9.66124 | 8649 ft | 275 kts | 258° |
| 2026-05-04 16:37 | 30.24641 | -9.68280 | 9362 ft | 277 kts | 258° |
| 2026-05-04 16:37 | 30.24575 | -9.71410 | 10270 ft | 278 kts | 287° |
| 2026-05-04 16:38 | 30.25811 | -9.73929 | 10746 ft | 296 kts | 311° |
| 2026-05-04 16:39 | 30.31834 | -9.76931 | 11711 ft | 351 kts | 351° |
| 2026-05-04 16:39 | 30.36714 | -9.78191 | 12472 ft | 367 kts | 345° |
| 2026-05-04 16:40 | 30.41915 | -9.78065 | 13698 ft | 386 kts | 9° |
| 2026-05-04 16:40 | 30.47219 | -9.76815 | 14803 ft | 393 kts | 4° |
| 2026-05-04 16:41 | 30.52703 | -9.76150 | 16037 ft | 399 kts | 0° |
| 2026-05-04 16:41 | 30.61160 | -9.75474 | 17745 ft | 413 kts | 359° |
| 2026-05-04 16:42 | 30.69818 | -9.74756 | 19510 ft | 421 kts | 359° |
| 2026-05-04 16:43 | 30.75711 | -9.74250 | 20626 ft | 428 kts | 359° |
| 2026-05-04 16:43 | 30.81678 | -9.73732 | 21694 ft | 433 kts | 359° |
| 2026-05-04 16:43 | 30.84689 | -9.73471 | 22163 ft | 437 kts | 359° |
| 2026-05-04 16:44 | 30.96977 | -9.72403 | 24161 ft | 448 kts | 358° |
| 2026-05-04 16:45 | 31.03233 | -9.71860 | 25034 ft | 454 kts | 358° |
| 2026-05-04 16:46 | 31.12804 | -9.71045 | 26191 ft | 466 kts | 358° |
| 2026-05-04 16:46 | 31.19281 | -9.70494 | 26980 ft | 472 kts | 357° |
| 2026-05-04 16:47 | 31.25859 | -9.69934 | 27659 ft | 479 kts | 357° |
| 2026-05-04 16:47 | 31.32535 | -9.69360 | 28712 ft | 477 kts | 357° |
| 2026-05-04 16:48 | 31.42392 | -9.68116 | 30302 ft | 478 kts | 4° |
| 2026-05-04 16:48 | 31.45657 | -9.67324 | 30754 ft | 479 kts | 5° |
| 2026-05-04 16:49 | 31.52207 | -9.65452 | 31623 ft | 480 kts | 6° |
| 2026-05-04 16:49 | 31.58707 | -9.63503 | 32328 ft | 480 kts | 6° |
| 2026-05-04 16:50 | 31.65179 | -9.61581 | 33062 ft | 479 kts | 6° |
| 2026-05-04 16:50 | 31.71597 | -9.59697 | 33853 ft | 475 kts | 5° |
| 2026-05-04 16:51 | 31.78073 | -9.57823 | 34028 ft | 480 kts | 5° |
| 2026-05-04 16:51 | 31.81326 | -9.56886 | 34024 ft | 478 kts | 5° |
| 2026-05-04 16:52 | 31.94126 | -9.53188 | 34031 ft | 476 kts | 5° |
| 2026-05-04 16:53 | 32.03777 | -9.50396 | 34045 ft | 476 kts | 5° |
| 2026-05-04 16:54 | 32.16605 | -9.46674 | 34046 ft | 474 kts | 6° |
| 2026-05-04 16:55 | 32.35822 | -9.41075 | 34041 ft | 473 kts | 6° |
| 2026-05-04 16:56 | 32.51759 | -9.36417 | 34044 ft | 471 kts | 6° |
| 2026-05-04 16:57 | 32.61337 | -9.33611 | 34050 ft | 473 kts | 7° |
| 2026-05-04 16:58 | 32.74128 | -9.29847 | 34052 ft | 472 kts | 7° |
| 2026-05-04 17:00 | 32.93192 | -9.24222 | 34175 ft | 473 kts | 8° |
| 2026-05-04 17:00 | 33.02826 | -9.21369 | 35028 ft | 473 kts | 8° |
| 2026-05-04 17:01 | 33.09206 | -9.19477 | 35552 ft | 473 kts | 7° |
| 2026-05-04 17:01 | 33.15603 | -9.17572 | 36073 ft | 472 kts | 7° |
| 2026-05-04 17:02 | 33.22006 | -9.15675 | 36074 ft | 475 kts | 7° |
| 2026-05-04 17:03 | 33.31578 | -9.12843 | 36068 ft | 472 kts | 7° |
| 2026-05-04 17:03 | 33.41196 | -9.09993 | 36173 ft | 473 kts | 7° |
| 2026-05-04 17:04 | 33.47561 | -9.08098 | 35836 ft | 469 kts | 7° |
| 2026-05-04 17:04 | 33.53866 | -9.06216 | 36164 ft | 472 kts | 7° |
| 2026-05-04 17:05 | 33.60168 | -9.04335 | 36049 ft | 469 kts | 7° |
| 2026-05-04 17:05 | 33.66538 | -9.02437 | 36060 ft | 469 kts | 6° |
| 2026-05-04 17:06 | 33.76138 | -8.99571 | 36072 ft | 476 kts | 6° |
| 2026-05-04 17:07 | 33.84669 | -8.97010 | 36066 ft | 475 kts | 6° |
| 2026-05-04 17:07 | 33.92150 | -8.94760 | 36067 ft | 474 kts | 6° |
| 2026-05-04 17:08 | 34.01764 | -8.91867 | 36075 ft | 474 kts | 7° |
| 2026-05-04 17:09 | 34.08190 | -8.89929 | 36073 ft | 476 kts | 6° |
| 2026-05-04 17:09 | 34.14593 | -8.87991 | 36079 ft | 473 kts | 6° |
| 2026-05-04 17:10 | 34.30540 | -8.83161 | 36077 ft | 473 kts | 6° |
| 2026-05-04 17:11 | 34.36892 | -8.81231 | 36075 ft | 471 kts | 6° |
| 2026-05-04 17:12 | 34.46469 | -8.78317 | 36079 ft | 473 kts | 6° |
| 2026-05-04 17:13 | 34.62373 | -8.73437 | 36078 ft | 472 kts | 6° |
| 2026-05-04 17:14 | 34.75032 | -8.69532 | 36081 ft | 470 kts | 6° |
| 2026-05-04 17:15 | 34.84574 | -8.66592 | 36082 ft | 472 kts | 5° |
| 2026-05-04 17:16 | 34.97221 | -8.62673 | 36082 ft | 470 kts | 6° |
| 2026-05-04 17:17 | 35.09859 | -8.58745 | 36078 ft | 468 kts | 6° |
| 2026-05-04 17:18 | 35.22516 | -8.54803 | 36078 ft | 471 kts | 5° |
| 2026-05-04 17:19 | 35.35148 | -8.50851 | 36080 ft | 467 kts | 6° |
| 2026-05-04 17:20 | 35.47781 | -8.46891 | 36085 ft | 468 kts | 6° |
| 2026-05-04 17:20 | 35.57215 | -8.43919 | 36079 ft | 468 kts | 5° |
| 2026-05-04 17:21 | 35.69810 | -8.39949 | 36077 ft | 467 kts | 5° |
| 2026-05-04 17:22 | 35.76111 | -8.37955 | 36083 ft | 467 kts | 5° |
| 2026-05-04 17:23 | 35.88701 | -8.33966 | 36081 ft | 469 kts | 6° |
| 2026-05-04 17:24 | 35.98029 | -8.30078 | 36079 ft | 482 kts | 20° |
| 2026-05-04 17:24 | 36.06610 | -8.23345 | 36077 ft | 494 kts | 28° |
| 2026-05-04 17:25 | 36.09430 | -8.20861 | 36072 ft | 492 kts | 29° |
| 2026-05-04 17:26 | 36.20560 | -8.11018 | 36071 ft | 495 kts | 28° |
| 2026-05-04 17:27 | 36.34542 | -7.98864 | 36058 ft | 492 kts | 28° |
| 2026-05-04 17:28 | 36.45684 | -7.89206 | 36052 ft | 491 kts | 28° |
| 2026-05-04 17:29 | 36.62417 | -7.74637 | 36038 ft | 490 kts | 28° |
| 2026-05-04 17:31 | 36.76351 | -7.62437 | 36029 ft | 488 kts | 28° |
| 2026-05-04 17:32 | 36.90216 | -7.50248 | 36027 ft | 487 kts | 28° |
| 2026-05-04 17:33 | 37.01300 | -7.40463 | 36030 ft | 487 kts | 28° |
| 2026-05-04 17:34 | 37.11879 | -7.29734 | 36023 ft | 494 kts | 36° |
| 2026-05-04 17:35 | 37.24665 | -7.15332 | 36019 ft | 494 kts | 36° |
| 2026-05-04 17:36 | 37.29780 | -7.09631 | 36021 ft | 493 kts | 35° |
| 2026-05-04 17:36 | 37.34901 | -7.03940 | 36014 ft | 493 kts | 35° |
| 2026-05-04 17:37 | 37.40046 | -6.98227 | 36012 ft | 493 kts | 35° |
| 2026-05-04 17:37 | 37.45186 | -6.92515 | 36013 ft | 494 kts | 35° |
| 2026-05-04 17:38 | 37.50273 | -6.86847 | 36016 ft | 493 kts | 35° |
| 2026-05-04 17:38 | 37.55430 | -6.81093 | 36011 ft | 493 kts | 35° |
| 2026-05-04 17:39 | 37.63114 | -6.72493 | 36012 ft | 492 kts | 35° |
| 2026-05-04 17:39 | 37.68217 | -6.66769 | 36014 ft | 494 kts | 35° |
| 2026-05-04 17:40 | 37.73341 | -6.61009 | 36015 ft | 493 kts | 35° |
| 2026-05-04 17:40 | 37.78425 | -6.55284 | 36014 ft | 494 kts | 35° |
| 2026-05-04 17:41 | 37.83553 | -6.49499 | 36012 ft | 493 kts | 35° |
| 2026-05-04 17:41 | 37.88664 | -6.43725 | 36011 ft | 495 kts | 35° |
| 2026-05-04 17:42 | 37.93796 | -6.37915 | 36010 ft | 494 kts | 35° |
| 2026-05-04 17:42 | 37.98877 | -6.32151 | 36011 ft | 495 kts | 36° |
| 2026-05-04 17:43 | 38.04002 | -6.26323 | 36010 ft | 494 kts | 36° |
| 2026-05-04 17:43 | 38.09105 | -6.20510 | 36004 ft | 495 kts | 36° |
| 2026-05-04 17:44 | 38.14233 | -6.14658 | 36003 ft | 493 kts | 36° |
| 2026-05-04 17:44 | 38.19319 | -6.08843 | 36011 ft | 495 kts | 36° |
| 2026-05-04 17:45 | 38.24410 | -6.03011 | 36011 ft | 495 kts | 36° |
| 2026-05-04 17:45 | 38.29514 | -5.97154 | 35997 ft | 492 kts | 36° |
| 2026-05-04 17:46 | 38.34620 | -5.91283 | 36006 ft | 495 kts | 36° |
| 2026-05-04 17:46 | 38.39733 | -5.85389 | 35998 ft | 495 kts | 36° |
| 2026-05-04 17:47 | 38.44824 | -5.79510 | 35999 ft | 494 kts | 36° |
| 2026-05-04 17:47 | 38.49886 | -5.73651 | 35985 ft | 494 kts | 36° |
| 2026-05-04 17:48 | 38.55003 | -5.67723 | 35984 ft | 494 kts | 36° |
| 2026-05-04 17:48 | 38.60105 | -5.61796 | 35998 ft | 496 kts | 36° |
| 2026-05-04 17:49 | 38.65189 | -5.55875 | 35991 ft | 493 kts | 36° |
| 2026-05-04 17:49 | 38.70240 | -5.49984 | 35987 ft | 495 kts | 37° |
| 2026-05-04 17:50 | 38.75354 | -5.44005 | 35983 ft | 494 kts | 37° |
| 2026-05-04 17:50 | 38.80456 | -5.38037 | 35986 ft | 503 kts | 37° |
| 2026-05-04 17:51 | 38.85636 | -5.31970 | 35982 ft | 507 kts | 37° |
| 2026-05-04 17:51 | 38.90829 | -5.25861 | 35973 ft | 505 kts | 38° |
| 2026-05-04 17:52 | 38.95983 | -5.19790 | 35983 ft | 507 kts | 37° |
| 2026-05-04 17:52 | 39.01350 | -5.14064 | 35961 ft | 500 kts | 31° |
| 2026-05-04 17:53 | 39.07087 | -5.08976 | 35973 ft | 498 kts | 27° |
| 2026-05-04 17:53 | 39.12919 | -5.04170 | 35987 ft | 497 kts | 26° |
| 2026-05-04 17:54 | 39.18749 | -4.99429 | 35953 ft | 496 kts | 26° |
| 2026-05-04 17:54 | 39.24569 | -4.94660 | 35971 ft | 498 kts | 27° |
| 2026-05-04 17:55 | 39.30370 | -4.89864 | 35984 ft | 497 kts | 27° |
| 2026-05-04 17:55 | 39.36198 | -4.85016 | 35947 ft | 499 kts | 27° |
| 2026-05-04 17:56 | 39.42034 | -4.80142 | 35973 ft | 500 kts | 27° |
| 2026-05-04 17:56 | 39.47847 | -4.75272 | 35992 ft | 499 kts | 27° |
| 2026-05-04 17:57 | 39.53653 | -4.70401 | 35973 ft | 499 kts | 27° |
| 2026-05-04 17:57 | 39.59483 | -4.65499 | 35949 ft | 499 kts | 27° |
| 2026-05-04 17:58 | 39.65279 | -4.60620 | 35951 ft | 499 kts | 27° |
| 2026-05-04 17:58 | 39.71098 | -4.55711 | 35969 ft | 500 kts | 27° |
| 2026-05-04 17:59 | 39.76905 | -4.50801 | 35939 ft | 498 kts | 27° |
| 2026-05-04 18:00 | 39.85631 | -4.43407 | 35927 ft | 500 kts | 27° |
| 2026-05-04 18:00 | 39.91455 | -4.38458 | 35922 ft | 501 kts | 27° |
| 2026-05-04 18:01 | 39.97366 | -4.33647 | 35936 ft | 496 kts | 23° |
| 2026-05-04 18:01 | 40.03478 | -4.29568 | 35938 ft | 495 kts | 19° |
| 2026-05-04 18:02 | 40.12843 | -4.23930 | 35956 ft | 494 kts | 18° |
| 2026-05-04 18:02 | 40.19070 | -4.20206 | 35965 ft | 494 kts | 19° |
| 2026-05-04 18:03 | 40.25340 | -4.16411 | 35956 ft | 496 kts | 19° |
| 2026-05-04 18:03 | 40.31565 | -4.12606 | 35954 ft | 495 kts | 19° |
| 2026-05-04 18:04 | 40.37814 | -4.08766 | 35978 ft | 496 kts | 19° |
| 2026-05-04 18:05 | 40.47156 | -4.03000 | 35967 ft | 495 kts | 19° |
| 2026-05-04 18:05 | 40.53388 | -3.99143 | 35970 ft | 494 kts | 19° |
| 2026-05-04 18:06 | 40.62748 | -3.93340 | 35983 ft | 494 kts | 19° |
| 2026-05-04 18:06 | 40.68961 | -3.89478 | 36016 ft | 496 kts | 20° |
| 2026-05-04 18:07 | 40.75197 | -3.85593 | 36021 ft | 495 kts | 20° |
| 2026-05-04 18:07 | 40.81414 | -3.81711 | 36011 ft | 493 kts | 20° |
| 2026-05-04 18:08 | 40.87613 | -3.77833 | 35995 ft | 493 kts | 20° |
| 2026-05-04 18:08 | 40.93819 | -3.73944 | 36228 ft | 493 kts | 20° |
| 2026-05-04 18:09 | 40.99986 | -3.70067 | 35975 ft | 491 kts | 20° |
| 2026-05-04 18:09 | 41.06163 | -3.66180 | 35971 ft | 493 kts | 20° |
| 2026-05-04 18:10 | 41.12397 | -3.62249 | 35981 ft | 490 kts | 21° |
| 2026-05-04 18:10 | 41.18542 | -3.58456 | 35954 ft | 491 kts | 19° |
| 2026-05-04 18:11 | 41.24829 | -3.54998 | 35965 ft | 491 kts | 17° |
| 2026-05-04 18:11 | 41.31130 | -3.51655 | 35966 ft | 488 kts | 17° |
| 2026-05-04 18:12 | 41.37450 | -3.48279 | 35967 ft | 490 kts | 17° |
| 2026-05-04 18:12 | 41.43755 | -3.44860 | 35954 ft | 489 kts | 18° |
| 2026-05-04 18:13 | 41.50057 | -3.41409 | 35953 ft | 489 kts | 18° |
| 2026-05-04 18:14 | 41.59495 | -3.36208 | 35961 ft | 490 kts | 18° |
| 2026-05-04 18:14 | 41.65755 | -3.32745 | 35952 ft | 491 kts | 19° |
| 2026-05-04 18:15 | 41.78368 | -3.25745 | 35948 ft | 491 kts | 19° |
| 2026-05-04 18:16 | 41.84683 | -3.22233 | 35958 ft | 491 kts | 19° |
| 2026-05-04 18:16 | 41.90989 | -3.18715 | 35951 ft | 491 kts | 19° |
| 2026-05-04 18:17 | 42.00432 | -3.13433 | 35956 ft | 490 kts | 19° |
| 2026-05-04 18:18 | 42.09849 | -3.08152 | 35954 ft | 491 kts | 19° |
| 2026-05-04 18:18 | 42.16133 | -3.04619 | 35963 ft | 491 kts | 19° |
| 2026-05-04 18:19 | 42.25577 | -2.99291 | 35980 ft | 493 kts | 19° |
| 2026-05-04 18:19 | 42.31887 | -2.95724 | 35960 ft | 492 kts | 19° |
| 2026-05-04 18:20 | 42.38224 | -2.92131 | 35973 ft | 491 kts | 19° |
| 2026-05-04 18:20 | 42.44401 | -2.88201 | 35972 ft | 493 kts | 27° |
| 2026-05-04 18:21 | 42.49996 | -2.82863 | 35971 ft | 496 kts | 38° |
| 2026-05-04 18:21 | 42.55172 | -2.76751 | 35982 ft | 498 kts | 40° |
| 2026-05-04 18:22 | 42.60267 | -2.70422 | 35995 ft | 496 kts | 41° |
| 2026-05-04 18:22 | 42.65345 | -2.64116 | 36016 ft | 496 kts | 41° |
| 2026-05-04 18:23 | 42.70450 | -2.57837 | 36007 ft | 496 kts | 40° |
| 2026-05-04 18:23 | 42.75575 | -2.51570 | 36020 ft | 497 kts | 40° |
| 2026-05-04 18:24 | 42.80717 | -2.45296 | 36021 ft | 496 kts | 40° |
| 2026-05-04 18:24 | 42.85847 | -2.39032 | 36015 ft | 498 kts | 40° |
| 2026-05-04 18:25 | 42.90976 | -2.32755 | 35977 ft | 497 kts | 41° |
| 2026-05-04 18:25 | 42.96093 | -2.26479 | 35992 ft | 495 kts | 41° |
| 2026-05-04 18:26 | 43.01189 | -2.20213 | 35994 ft | 495 kts | 41° |
| 2026-05-04 18:26 | 43.06307 | -2.13897 | 35981 ft | 495 kts | 41° |
| 2026-05-04 18:27 | 43.11397 | -2.07597 | 35991 ft | 495 kts | 41° |
| 2026-05-04 18:27 | 43.16473 | -2.01307 | 36016 ft | 496 kts | 41° |
| 2026-05-04 18:28 | 43.21575 | -1.94974 | 36011 ft | 494 kts | 41° |
| 2026-05-04 18:28 | 43.26656 | -1.88650 | 36039 ft | 495 kts | 41° |
| 2026-05-04 18:29 | 43.31913 | -1.82579 | 36029 ft | 495 kts | 35° |
| 2026-05-04 18:29 | 43.37665 | -1.77500 | 36019 ft | 492 kts | 29° |
| 2026-05-04 18:30 | 43.46365 | -1.70099 | 36031 ft | 492 kts | 32° |
| 2026-05-04 18:31 | 43.52082 | -1.64962 | 36023 ft | 493 kts | 32° |
| 2026-05-04 18:31 | 43.57784 | -1.59778 | 36016 ft | 492 kts | 33° |
| 2026-05-04 18:32 | 43.63469 | -1.54592 | 36015 ft | 493 kts | 32° |
| 2026-05-04 18:32 | 43.69185 | -1.49376 | 35985 ft | 492 kts | 32° |
| 2026-05-04 18:33 | 43.74913 | -1.44143 | 35991 ft | 493 kts | 33° |
| 2026-05-04 18:33 | 43.80622 | -1.38921 | 35977 ft | 492 kts | 33° |
| 2026-05-04 18:34 | 43.86308 | -1.33708 | 35989 ft | 491 kts | 33° |
| 2026-05-04 18:34 | 43.91987 | -1.28491 | 35984 ft | 491 kts | 34° |
| 2026-05-04 18:35 | 43.97640 | -1.23287 | 35975 ft | 492 kts | 33° |
| 2026-05-04 18:35 | 44.03316 | -1.18050 | 35979 ft | 490 kts | 33° |
| 2026-05-04 18:36 | 44.09024 | -1.12770 | 35961 ft | 491 kts | 33° |
| 2026-05-04 18:36 | 44.14650 | -1.07553 | 35959 ft | 490 kts | 34° |
| 2026-05-04 18:37 | 44.20345 | -1.02257 | 35957 ft | 492 kts | 34° |
| 2026-05-04 18:37 | 44.26015 | -0.96970 | 35982 ft | 492 kts | 34° |
| 2026-05-04 18:38 | 44.31700 | -0.91657 | 35980 ft | 491 kts | 34° |
| 2026-05-04 18:38 | 44.37355 | -0.86478 | 35949 ft | 490 kts | 31° |
| 2026-05-04 18:39 | 44.43499 | -0.82276 | 35964 ft | 491 kts | 20° |
| 2026-05-04 18:39 | 44.49977 | -0.79366 | 35947 ft | 489 kts | 15° |
| 2026-05-04 18:40 | 44.56529 | -0.76840 | 35950 ft | 488 kts | 14° |
| 2026-05-04 18:40 | 44.63052 | -0.74329 | 35953 ft | 489 kts | 15° |
| 2026-05-04 18:41 | 44.69598 | -0.71718 | 35950 ft | 489 kts | 15° |
| 2026-05-04 18:41 | 44.76127 | -0.69048 | 35964 ft | 489 kts | 16° |
| 2026-05-04 18:42 | 44.82645 | -0.66349 | 35973 ft | 491 kts | 16° |
| 2026-05-04 18:42 | 44.89180 | -0.63628 | 35967 ft | 490 kts | 16° |
| 2026-05-04 18:43 | 44.95730 | -0.60894 | 35960 ft | 491 kts | 16° |
| 2026-05-04 18:43 | 45.02267 | -0.58160 | 35941 ft | 490 kts | 16° |
| 2026-05-04 18:44 | 45.08802 | -0.55420 | 35938 ft | 493 kts | 16° |
| 2026-05-04 18:44 | 45.15390 | -0.53124 | 35919 ft | 489 kts | 1° |
| 2026-05-04 18:44 | 45.18762 | -0.53502 | 35946 ft | 487 kts | 346° |
| 2026-05-04 18:45 | 45.22073 | -0.54603 | 35926 ft | 487 kts | 342° |
| 2026-05-04 18:45 | 45.28544 | -0.57275 | 35931 ft | 486 kts | 340° |
| 2026-05-04 18:46 | 45.35004 | -0.60045 | 35937 ft | 485 kts | 341° |
| 2026-05-04 18:46 | 45.41440 | -0.62698 | 35927 ft | 486 kts | 342° |
| 2026-05-04 18:47 | 45.47968 | -0.65295 | 35606 ft | 484 kts | 342° |
| 2026-05-04 18:47 | 45.51178 | -0.66553 | 35106 ft | 483 kts | 342° |
| 2026-05-04 18:47 | 45.54421 | -0.67819 | 34418 ft | 487 kts | 342° |
| 2026-05-04 18:47 | 45.57709 | -0.69102 | 33671 ft | 493 kts | 343° |
| 2026-05-04 18:48 | 45.61018 | -0.70393 | 32975 ft | 499 kts | 343° |
| 2026-05-04 18:48 | 45.64390 | -0.71709 | 31983 ft | 508 kts | 344° |
| 2026-05-04 18:48 | 45.67802 | -0.73043 | 31006 ft | 515 kts | 344° |
| 2026-05-04 18:48 | 45.71256 | -0.74395 | 29975 ft | 519 kts | 344° |
| 2026-05-04 18:49 | 45.74717 | -0.75751 | 29119 ft | 519 kts | 344° |
| 2026-05-04 18:49 | 45.78178 | -0.77110 | 28466 ft | 515 kts | 344° |
| 2026-05-04 18:49 | 45.81578 | -0.78447 | 27771 ft | 511 kts | 344° |
| 2026-05-04 18:49 | 45.84999 | -0.79796 | 27067 ft | 507 kts | 344° |
| 2026-05-04 18:50 | 45.88360 | -0.81122 | 26378 ft | 503 kts | 344° |
| 2026-05-04 18:50 | 45.91728 | -0.82451 | 25696 ft | 500 kts | 344° |
| 2026-05-04 18:50 | 45.95064 | -0.83771 | 25001 ft | 496 kts | 343° |
| 2026-05-04 18:50 | 45.98363 | -0.85078 | 24302 ft | 492 kts | 343° |
| 2026-05-04 18:51 | 46.01622 | -0.86371 | 23611 ft | 481 kts | 343° |
| 2026-05-04 18:51 | 46.04782 | -0.87623 | 22965 ft | 469 kts | 343° |
| 2026-05-04 18:51 | 46.07894 | -0.88858 | 22298 ft | 458 kts | 343° |
| 2026-05-04 18:51 | 46.10917 | -0.90059 | 21616 ft | 447 kts | 343° |
| 2026-05-04 18:52 | 46.13853 | -0.91224 | 20981 ft | 437 kts | 343° |
| 2026-05-04 18:52 | 46.16757 | -0.92383 | 20372 ft | 429 kts | 343° |
| 2026-05-04 18:52 | 46.19581 | -0.93731 | 19744 ft | 426 kts | 338° |
| 2026-05-04 18:52 | 46.22232 | -0.95536 | 19086 ft | 422 kts | 328° |
| 2026-05-04 18:53 | 46.24675 | -0.97837 | 18433 ft | 418 kts | 322° |
| 2026-05-04 18:53 | 46.26991 | -1.00373 | 17778 ft | 415 kts | 320° |
| 2026-05-04 18:53 | 46.29203 | -1.02957 | 17165 ft | 412 kts | 319° |
| 2026-05-04 18:53 | 46.31410 | -1.05599 | 16549 ft | 409 kts | 319° |
| 2026-05-04 18:54 | 46.33553 | -1.08169 | 15841 ft | 397 kts | 319° |
| 2026-05-04 18:54 | 46.35644 | -1.10660 | 15291 ft | 382 kts | 320° |
| 2026-05-04 18:54 | 46.37657 | -1.13038 | 14695 ft | 369 kts | 320° |
| 2026-05-04 18:54 | 46.39641 | -1.15369 | 14139 ft | 373 kts | 321° |
| 2026-05-04 18:55 | 46.41653 | -1.17724 | 13533 ft | 373 kts | 321° |
| 2026-05-04 18:55 | 46.45628 | -1.22361 | 12334 ft | 365 kts | 321° |
| 2026-05-04 18:55 | 46.47594 | -1.24653 | 11743 ft | 364 kts | 321° |
| 2026-05-04 18:56 | 46.49533 | -1.26916 | 11169 ft | 362 kts | 321° |
| 2026-05-04 18:56 | 46.51497 | -1.29158 | 10627 ft | 349 kts | 323° |
| 2026-05-04 18:56 | 46.53375 | -1.31216 | 10302 ft | 328 kts | 324° |
| 2026-05-04 18:56 | 46.55138 | -1.33115 | 10107 ft | 307 kts | 324° |
| 2026-05-04 18:57 | 46.56813 | -1.34921 | 9787 ft | 296 kts | 324° |
| 2026-05-04 18:57 | 46.58450 | -1.36697 | 9365 ft | 295 kts | 324° |
| 2026-05-04 18:57 | 46.60061 | -1.38459 | 9004 ft | 287 kts | 324° |
| 2026-05-04 18:57 | 46.61628 | -1.40184 | 8669 ft | 278 kts | 324° |
| 2026-05-04 18:58 | 46.63164 | -1.41879 | 8337 ft | 271 kts | 324° |
| 2026-05-04 18:58 | 46.64636 | -1.43503 | 8012 ft | 264 kts | 324° |
| 2026-05-04 18:58 | 46.66118 | -1.45135 | 7682 ft | 269 kts | 324° |
| 2026-05-04 18:58 | 46.67585 | -1.46759 | 7353 ft | 268 kts | 324° |
| 2026-05-04 18:59 | 46.69059 | -1.48392 | 7019 ft | 266 kts | 324° |
| 2026-05-04 18:59 | 46.70522 | -1.50009 | 6698 ft | 263 kts | 324° |
| 2026-05-04 18:59 | 46.71973 | -1.51615 | 6435 ft | 260 kts | 324° |
| 2026-05-04 18:59 | 46.73407 | -1.53212 | 6102 ft | 258 kts | 323° |
| 2026-05-04 19:00 | 46.74818 | -1.54802 | 5795 ft | 256 kts | 323° |
| 2026-05-04 19:00 | 46.76228 | -1.56380 | 5479 ft | 254 kts | 324° |
| 2026-05-04 19:00 | 46.77641 | -1.57926 | 5156 ft | 252 kts | 325° |
| 2026-05-04 19:00 | 46.79022 | -1.59441 | 4861 ft | 251 kts | 325° |
| 2026-05-04 19:01 | 46.80420 | -1.60976 | 4520 ft | 250 kts | 325° |
| 2026-05-04 19:01 | 46.81802 | -1.62484 | 4213 ft | 248 kts | 325° |
| 2026-05-04 19:01 | 46.83169 | -1.64019 | 3982 ft | 245 kts | 324° |
| 2026-05-04 19:01 | 46.84503 | -1.65531 | 3996 ft | 243 kts | 323° |
| 2026-05-04 19:02 | 46.85845 | -1.67046 | 3988 ft | 243 kts | 324° |
| 2026-05-04 19:02 | 46.87174 | -1.68522 | 3795 ft | 239 kts | 324° |
| 2026-05-04 19:02 | 46.88489 | -1.69974 | 3551 ft | 235 kts | 323° |
| 2026-05-04 19:02 | 46.89769 | -1.71413 | 3287 ft | 231 kts | 323° |
| 2026-05-04 19:03 | 46.91019 | -1.72818 | 3099 ft | 223 kts | 323° |
| 2026-05-04 19:03 | 46.92222 | -1.74171 | 2976 ft | 212 kts | 323° |
| 2026-05-04 19:03 | 46.93351 | -1.75454 | 2991 ft | 200 kts | 325° |
| 2026-05-04 19:03 | 46.94577 | -1.76307 | 2989 ft | 196 kts | 351° |
| 2026-05-04 19:04 | 46.95935 | -1.76081 | 2999 ft | 201 kts | 25° |
| 2026-05-04 19:04 | 46.97075 | -1.74927 | 3004 ft | 200 kts | 34° |
| 2026-05-04 19:04 | 46.98268 | -1.73847 | 2999 ft | 203 kts | 24° |
| 2026-05-04 19:04 | 46.99562 | -1.72996 | 2989 ft | 200 kts | 23° |
| 2026-05-04 19:05 | 47.00767 | -1.72128 | 2984 ft | 185 kts | 26° |
| 2026-05-04 19:05 | 47.01865 | -1.71251 | 2914 ft | 182 kts | 26° |
| 2026-05-04 19:05 | 47.03006 | -1.70370 | 2557 ft | 185 kts | 24° |
| 2026-05-04 19:05 | 47.04137 | -1.69532 | 2312 ft | 183 kts | 24° |
| 2026-05-04 19:06 | 47.05260 | -1.68685 | 2058 ft | 181 kts | 24° |
| 2026-05-04 19:06 | 47.06382 | -1.67834 | 1810 ft | 179 kts | 24° |
| 2026-05-04 19:06 | 47.07478 | -1.67007 | 1574 ft | 172 kts | 24° |
| 2026-05-04 19:06 | 47.08514 | -1.66222 | 1330 ft | 165 kts | 24° |
| 2026-05-04 19:07 | 47.09532 | -1.65455 | 1122 ft | 166 kts | 24° |
| 2026-05-04 19:07 | 47.10548 | -1.64686 | 897 ft | 165 kts | 24° |
| 2026-05-04 19:07 | 47.11540 | -1.63936 | 692 ft | 157 kts | 24° |
| 2026-05-04 19:07 | 47.12488 | -1.63217 | 466 ft | 154 kts | 24° |
| 2026-05-04 19:08 | 47.13469 | -1.62473 | 265 ft | 159 kts | 25° |
| 2026-05-04 19:08 | 47.14444 | -1.61733 | 80 ft | 156 kts | 25° |
| 2026-05-04 19:08 | 47.15222 | -1.61152 | 87 ft | 90 kts | 29° |
| 2026-05-04 19:08 | 47.15629 | -1.60836 | 84 ft | 56 kts | 26° |
| 2026-05-04 19:09 | 47.15835 | -1.60615 | 84 ft | 19 kts | 89° |
| 2026-05-04 19:09 | 47.15783 | -1.60485 | 83 ft | 14 kts | 142° |
| 2026-05-04 19:09 | 47.15727 | -1.60467 | 83 ft | 7 kts | 211° |
| 2026-05-04 19:09 | 47.15668 | -1.60528 | 84 ft | 15 kts | 216° |
| 2026-05-04 19:10 | 47.15591 | -1.60546 | 84 ft | 0 kts | 112° |
| 2026-05-04 19:10 | 47.15580 | -1.60518 | 84 ft | 9 kts | 122° |
| 2026-05-04 19:10 | 47.15536 | -1.60427 | 82 ft | 11 kts | 126° |
| 2026-05-04 19:10 | 47.15530 | -1.60313 | 81 ft | 12 kts | 66° |
| 2026-05-04 19:11 | 47.15553 | -1.60204 | 83 ft | 10 kts | 78° |
| 2026-05-04 19:11 | 47.15567 | -1.60114 | 85 ft | 6 kts | 63° |
| 2026-05-04 19:11 | 47.15592 | -1.60073 | 85 ft | 3 kts | 44° |
| 2026-05-04 19:11 | 47.15606 | -1.60054 | 86 ft | 1 kts | 44° |
| 2026-05-04 19:12 | 47.15608 | -1.60050 | 86 ft | 0 kts | 44° |
| 2026-05-04 19:12 | 47.15609 | -1.60049 | 86 ft | 0 kts | 44° |